createdAt,value
2022-10-21T00:00:43.473Z,66.41
2022-10-21T00:03:13.380Z,66.49
2022-10-21T00:05:43.716Z,66.65
2022-10-21T00:08:16.965Z,66.60
2022-10-21T00:10:47.193Z,66.64
2022-10-21T00:13:17.282Z,66.96
2022-10-21T00:15:47.423Z,67.11
2022-10-21T00:18:17.560Z,67.40
2022-10-21T00:20:47.688Z,68.30
2022-10-21T00:23:20.365Z,69.19
2022-10-21T00:25:50.665Z,69.72
2022-10-21T00:28:20.751Z,69.85
2022-10-21T00:30:50.771Z,69.97
2022-10-21T00:33:20.829Z,69.97
2022-10-21T00:35:55.030Z,69.96
2022-10-21T00:38:28.285Z,70.23
2022-10-21T00:40:58.658Z,70.35
2022-10-21T00:43:30.174Z,70.18
2022-10-21T00:46:06.224Z,69.80
2022-10-21T00:48:39.991Z,69.39
2022-10-21T00:51:13.139Z,69.27
2022-10-21T00:53:49.931Z,69.21
2022-10-21T00:56:24.684Z,69.18
2022-10-21T00:58:57.556Z,69.27
2022-10-21T01:01:27.906Z,69.04
2022-10-21T01:03:58.096Z,69.14
2022-10-21T01:06:29.556Z,69.47
2022-10-21T01:09:04.489Z,69.50
2022-10-21T01:11:44.321Z,69.64
2022-10-21T01:14:35.288Z,69.50
2022-10-21T01:17:26.542Z,68.97
2022-10-21T01:20:48.573Z,68.67
2022-10-21T01:23:53.007Z,68.87
2022-10-21T01:27:08.143Z,69.17
2022-10-21T01:30:32.024Z,68.86
2022-10-21T01:33:30.165Z,68.82
2022-10-21T01:36:11.337Z,68.60
2022-10-21T01:38:46.571Z,68.62
2022-10-21T01:41:27.734Z,68.50
2022-10-21T01:44:08.501Z,68.68
2022-10-21T01:46:46.534Z,68.86
2022-10-21T01:49:26.772Z,69.32
2022-10-21T01:51:57.736Z,69.16
2022-10-21T01:54:32.107Z,69.24
2022-10-21T01:57:04.833Z,69.11
2022-10-21T01:59:35.976Z,69.16
2022-10-21T02:02:09.926Z,69.20
2022-10-21T02:04:45.843Z,69.22
2022-10-21T02:07:16.483Z,69.74
2022-10-21T02:09:46.702Z,70.03
2022-10-21T02:12:18.518Z,69.78
2022-10-21T02:14:54.362Z,69.67
2022-10-21T02:17:26.228Z,69.74
2022-10-21T02:20:04.084Z,70.05
2022-10-21T02:22:35.876Z,70.02
2022-10-21T02:25:13.518Z,69.98
2022-10-21T02:27:43.732Z,70.30
2022-10-21T02:30:14.475Z,70.08
2022-10-21T02:32:53.873Z,70.30
2022-10-21T02:35:37.617Z,70.47
2022-10-21T02:38:17.960Z,71.31
2022-10-21T02:40:53.149Z,71.44
2022-10-21T02:43:29.245Z,71.36
2022-10-21T02:46:04.634Z,71.03
2022-10-21T02:48:36.796Z,70.52
2022-10-21T02:51:11.071Z,70.44
2022-10-21T02:53:41.155Z,70.24
2022-10-21T02:56:11.866Z,69.81
2022-10-21T02:58:42.057Z,69.65
2022-10-21T03:01:12.249Z,69.93
2022-10-21T03:03:42.480Z,69.89
2022-10-21T03:06:15.450Z,70.19
2022-10-21T03:08:45.569Z,69.86
2022-10-21T03:11:16.300Z,69.94
2022-10-21T03:13:46.491Z,69.75
2022-10-21T03:16:16.616Z,69.85
2022-10-21T03:18:46.993Z,70.01
2022-10-21T03:21:19.778Z,70.14
2022-10-21T03:23:49.866Z,70.12
2022-10-21T03:26:19.832Z,69.80
2022-10-21T03:28:49.964Z,69.74
2022-10-21T03:31:20.041Z,69.49
2022-10-21T03:33:50.211Z,69.09
2022-10-21T03:36:23.852Z,69.49
2022-10-21T03:38:53.980Z,69.29
2022-10-21T03:41:24.012Z,68.86
2022-10-21T03:43:54.069Z,69.29
2022-10-21T03:46:24.097Z,69.14
2022-10-21T03:48:54.144Z,68.76
2022-10-21T03:51:26.863Z,68.72
2022-10-21T03:53:57.013Z,68.62
2022-10-21T03:56:27.330Z,68.77
2022-10-21T03:58:58.780Z,68.60
2022-10-21T04:01:29.353Z,68.83
2022-10-21T04:03:59.609Z,68.76
2022-10-21T04:06:32.262Z,69.09
2022-10-21T04:09:02.434Z,69.78
2022-10-21T04:11:32.479Z,69.97
2022-10-21T04:14:02.774Z,70.26
2022-10-21T04:16:33.841Z,70.14
2022-10-21T04:19:04.407Z,69.68
2022-10-21T04:21:37.112Z,69.27
2022-10-21T04:24:08.311Z,68.82
2022-10-21T04:26:38.388Z,69.00
2022-10-21T04:29:08.525Z,68.80
2022-10-21T04:31:38.900Z,68.55
2022-10-21T04:34:09.038Z,68.39
2022-10-21T04:36:41.695Z,68.14
2022-10-21T04:39:11.806Z,68.09
2022-10-21T04:41:41.913Z,67.67
2022-10-21T04:44:11.961Z,67.75
2022-10-21T04:46:41.980Z,67.79
2022-10-21T04:49:12.094Z,67.99
2022-10-21T04:51:44.689Z,68.23
2022-10-21T04:54:14.907Z,67.89
2022-10-21T04:56:45.806Z,67.97
2022-10-21T04:59:15.985Z,68.29
2022-10-21T05:01:46.056Z,68.45
2022-10-21T05:04:16.114Z,68.95
2022-10-21T05:06:48.743Z,69.07
2022-10-21T05:09:19.169Z,69.35
2022-10-21T05:11:49.276Z,69.83
2022-10-21T05:14:22.531Z,70.02
2022-10-21T05:16:53.088Z,70.38
2022-10-21T05:19:24.750Z,71.37
2022-10-21T05:21:59.300Z,72.45
2022-10-21T05:24:29.478Z,72.94
2022-10-21T05:26:59.661Z,72.27
2022-10-21T05:29:29.708Z,72.65
2022-10-21T05:31:59.716Z,72.55
2022-10-21T05:34:29.823Z,73.48
2022-10-21T05:37:02.694Z,74.05
2022-10-21T05:39:32.853Z,73.68
2022-10-21T05:42:02.928Z,73.58
2022-10-21T05:44:33.011Z,72.82
2022-10-21T05:47:03.034Z,73.16
2022-10-21T05:49:33.228Z,72.99
2022-10-21T05:52:05.865Z,73.12
2022-10-21T05:54:35.923Z,73.03
2022-10-21T05:57:06.178Z,73.17
2022-10-21T05:59:36.294Z,73.11
2022-10-21T06:02:06.370Z,73.15
2022-10-21T06:04:38.743Z,73.54
2022-10-21T06:07:11.753Z,73.71
2022-10-21T06:09:41.781Z,74.00
2022-10-21T06:12:11.870Z,73.69
2022-10-21T06:14:41.881Z,73.76
2022-10-21T06:17:12.096Z,73.37
2022-10-21T06:19:44.857Z,72.53
2022-10-21T06:22:20.296Z,72.78
2022-10-21T06:24:50.890Z,72.69
2022-10-21T06:27:21.308Z,72.52
2022-10-21T06:29:51.415Z,72.16
2022-10-21T06:32:21.462Z,72.03
2022-10-21T06:34:51.507Z,71.49
2022-10-21T06:37:24.178Z,71.34
2022-10-21T06:39:54.249Z,70.99
2022-10-21T06:42:24.287Z,70.78
2022-10-21T06:44:56.706Z,70.48
2022-10-21T06:47:29.530Z,70.31
2022-10-21T06:50:03.084Z,70.03
2022-10-21T06:52:36.027Z,70.04
2022-10-21T06:55:06.511Z,69.99
2022-10-21T06:57:37.267Z,70.28
2022-10-21T07:00:08.793Z,69.63
2022-10-21T07:02:39.174Z,69.56
2022-10-21T07:05:10.751Z,69.27
2022-10-21T07:07:43.550Z,69.62
2022-10-21T07:10:13.724Z,68.83
2022-10-21T07:12:43.736Z,68.31
2022-10-21T07:15:14.896Z,67.43
2022-10-21T07:17:45.059Z,66.57
2022-10-21T07:20:15.098Z,65.57
2022-10-21T07:22:47.714Z,64.86
2022-10-21T07:25:18.000Z,63.24
2022-10-21T07:27:48.455Z,63.77
2022-10-21T07:30:19.116Z,64.75
2022-10-21T07:32:49.243Z,65.05
2022-10-21T07:35:19.401Z,65.13
2022-10-21T07:37:52.046Z,65.21
2022-10-21T07:40:22.584Z,65.13
2022-10-21T07:42:52.953Z,65.07
2022-10-21T07:45:23.068Z,65.57
2022-10-21T07:47:53.299Z,65.60
2022-10-21T07:50:23.732Z,65.58
2022-10-21T07:53:10.250Z,65.67
2022-10-21T07:55:42.391Z,65.47
2022-10-21T07:58:12.718Z,62.81
2022-10-21T08:00:46.837Z,61.60
2022-10-21T08:03:17.005Z,62.07
2022-10-21T08:05:47.048Z,62.91
2022-10-21T08:08:21.813Z,62.57
2022-10-21T08:10:52.668Z,59.08
2022-10-21T08:13:23.097Z,54.65
2022-10-21T08:15:56.974Z,50.86
2022-10-21T08:18:27.640Z,49.00
2022-10-21T08:20:58.319Z,48.48
2022-10-21T08:23:30.774Z,45.89
2022-10-21T08:26:03.207Z,44.81
2022-10-21T08:28:34.777Z,42.46
2022-10-21T08:31:10.919Z,40.45
2022-10-21T08:33:41.834Z,40.22
2022-10-21T08:36:15.242Z,38.85
2022-10-21T08:38:48.762Z,38.88
2022-10-21T08:41:43.047Z,39.43
2022-10-21T08:44:27.271Z,41.34
2022-10-21T08:47:06.688Z,42.27
2022-10-21T08:49:49.092Z,43.99
2022-10-21T08:52:25.372Z,46.24
2022-10-21T08:55:02.971Z,46.27
2022-10-21T08:57:37.647Z,45.11
2022-10-21T09:00:18.688Z,44.39
2022-10-21T09:03:04.328Z,44.74
2022-10-21T09:06:02.367Z,46.64
2022-10-21T09:08:40.719Z,47.97
2022-10-21T09:11:28.063Z,49.21
2022-10-21T09:14:43.736Z,50.54
2022-10-21T09:17:31.087Z,50.68
2022-10-21T09:20:16.471Z,50.23
2022-10-21T09:22:59.058Z,49.16
2022-10-21T09:25:36.158Z,49.78
2022-10-21T09:28:15.152Z,51.18
2022-10-21T09:30:48.057Z,51.74
2022-10-21T09:33:25.035Z,52.08
2022-10-21T09:36:00.552Z,52.33
2022-10-21T09:38:39.764Z,52.44
2022-10-21T09:41:17.537Z,52.63
2022-10-21T09:43:51.734Z,53.04
2022-10-21T09:46:22.886Z,54.44
2022-10-21T09:51:47.855Z,53.95
2022-10-21T09:54:23.399Z,53.84
2022-10-21T09:56:59.297Z,53.77
2022-10-21T09:59:33.585Z,53.59
2022-10-21T10:02:11.222Z,53.67
2022-10-21T10:04:41.493Z,53.53
2022-10-21T10:07:30.488Z,52.58
2022-10-21T10:10:00.639Z,52.00
2022-10-21T10:12:32.714Z,51.81
2022-10-21T10:15:30.684Z,51.65
2022-10-21T10:18:03.533Z,52.51
2022-10-21T10:20:33.787Z,52.83
2022-10-21T10:23:17.876Z,54.16
2022-10-21T10:25:54.342Z,55.21
2022-10-21T10:28:27.939Z,55.95
2022-10-21T10:31:00.802Z,55.44
2022-10-21T10:33:35.588Z,56.07
2022-10-21T10:36:09.601Z,54.78
2022-10-21T10:38:45.250Z,54.15
2022-10-21T10:41:18.861Z,53.44
2022-10-21T10:43:51.876Z,52.96
2022-10-21T10:46:30.474Z,53.90
2022-10-21T10:49:07.645Z,55.24
2022-10-21T10:51:40.669Z,55.51
2022-10-21T10:54:24.321Z,55.95
2022-10-21T10:56:59.202Z,56.71
2022-10-21T10:59:38.176Z,57.64
2022-10-21T11:02:26.442Z,58.40
2022-10-21T11:05:21.410Z,59.57
2022-10-21T11:07:54.374Z,60.28
2022-10-21T11:10:37.047Z,61.10
2022-10-21T11:13:14.894Z,61.35
2022-10-21T11:16:03.097Z,63.20
2022-10-21T11:18:41.359Z,65.03
2022-10-21T11:21:29.358Z,66.89
2022-10-21T11:24:26.223Z,68.92
2022-10-21T11:27:03.337Z,69.67
2022-10-21T11:29:48.831Z,71.13
2022-10-21T11:32:47.926Z,72.00
2022-10-21T11:35:44.445Z,73.16
2022-10-21T11:38:33.259Z,75.20
2022-10-21T11:41:21.899Z,79.40
2022-10-21T11:44:10.000Z,82.16
2022-10-21T11:46:49.422Z,82.08
2022-10-21T11:49:44.789Z,83.65
2022-10-21T11:52:30.337Z,84.34
2022-10-21T11:55:35.438Z,86.39
2022-10-21T11:58:30.689Z,86.24
2022-10-21T12:01:24.097Z,87.40
2022-10-21T12:04:30.437Z,89.56
2022-10-21T12:07:19.431Z,89.73
2022-10-21T12:09:56.684Z,90.35
2022-10-21T12:12:34.515Z,90.37
2022-10-21T12:15:09.559Z,91.30
2022-10-21T12:17:40.307Z,90.73
2022-10-21T12:20:23.898Z,92.76
2022-10-21T12:23:03.345Z,93.52
2022-10-21T12:25:43.149Z,94.40
2022-10-21T12:28:25.477Z,94.66
2022-10-21T12:31:03.669Z,95.86
2022-10-21T12:33:41.660Z,96.83
2022-10-21T12:36:22.215Z,98.94
2022-10-21T12:38:56.833Z,99.01
2022-10-21T12:41:34.623Z,98.93
2022-10-21T12:44:21.688Z,99.68
2022-10-21T12:46:55.391Z,100.00
2022-10-21T12:49:32.498Z,100.00
2022-10-21T12:52:12.652Z,100.00
2022-10-21T12:54:57.124Z,100.00
2022-10-21T12:57:32.016Z,100.00
2022-10-21T13:00:55.434Z,100.00
2022-10-21T13:03:58.176Z,100.00
2022-10-21T13:06:54.841Z,100.00
2022-10-21T13:09:43.569Z,100.00
2022-10-21T13:12:29.705Z,100.00
2022-10-21T13:15:02.324Z,100.00
2022-10-21T13:17:55.290Z,100.00
2022-10-21T13:21:00.964Z,100.00
2022-10-21T13:23:40.053Z,100.00
2022-10-21T13:26:21.630Z,100.00
2022-10-21T13:29:24.824Z,100.00
2022-10-21T13:32:15.249Z,100.00
2022-10-21T13:35:02.448Z,100.00
2022-10-21T13:37:39.137Z,100.00
2022-10-21T13:40:18.375Z,100.00
2022-10-21T13:42:57.720Z,100.00
2022-10-21T13:45:32.322Z,100.00
2022-10-21T13:48:09.116Z,100.00
2022-10-21T13:50:43.626Z,100.00
2022-10-21T13:53:36.473Z,100.00
2022-10-21T13:56:10.684Z,100.00
2022-10-21T13:58:42.353Z,100.00
2022-10-21T14:01:15.191Z,100.00
2022-10-21T14:03:45.782Z,100.00
2022-10-21T14:06:30.819Z,100.00
2022-10-21T14:09:08.276Z,100.00
2022-10-21T14:11:46.776Z,100.00
2022-10-21T14:14:20.703Z,100.00
2022-10-21T14:16:55.354Z,100.00
2022-10-21T14:19:29.346Z,100.00
2022-10-21T14:22:03.178Z,100.00
2022-10-21T14:24:43.488Z,100.00
2022-10-21T14:27:17.743Z,100.00
2022-10-21T14:29:48.880Z,100.00
2022-10-21T14:32:22.360Z,100.00
2022-10-21T14:35:24.319Z,100.00
2022-10-21T14:37:57.861Z,100.00
2022-10-21T14:40:34.636Z,100.00
2022-10-21T14:43:08.723Z,100.00
2022-10-21T14:45:48.127Z,100.00
2022-10-21T14:48:25.092Z,100.00
2022-10-21T14:50:59.925Z,100.00
2022-10-21T14:53:33.393Z,100.00
2022-10-21T14:56:09.360Z,100.00
2022-10-21T14:58:41.376Z,100.00
2022-10-21T15:01:17.649Z,100.00
2022-10-21T15:03:50.208Z,100.00
2022-10-21T15:06:23.817Z,100.00
2022-10-21T15:09:09.922Z,100.00
2022-10-21T15:11:45.806Z,100.00
2022-10-21T15:14:33.143Z,100.00
2022-10-21T15:17:06.934Z,100.00
2022-10-21T15:19:47.718Z,100.00
2022-10-21T15:22:38.097Z,100.00
2022-10-21T15:25:12.208Z,100.00
2022-10-21T15:27:46.045Z,100.00
2022-10-21T15:30:23.368Z,100.00
2022-10-21T15:32:55.193Z,100.00
2022-10-21T15:35:26.904Z,100.00
2022-10-21T15:37:57.549Z,100.00
2022-10-21T15:40:27.720Z,100.00
2022-10-21T15:43:00.502Z,100.00
2022-10-21T15:45:30.773Z,100.00
2022-10-21T15:48:00.860Z,100.00
2022-10-21T15:50:30.879Z,100.00
2022-10-21T15:53:00.928Z,100.00
2022-10-21T15:55:30.916Z,100.00
2022-10-21T15:58:03.524Z,100.00
2022-10-21T16:00:40.060Z,100.00
2022-10-21T16:03:11.554Z,100.00
2022-10-21T16:05:42.006Z,100.00
2022-10-21T16:08:15.381Z,100.00
2022-10-21T16:10:47.939Z,100.00
2022-10-21T16:13:20.712Z,100.00
2022-10-21T16:15:50.894Z,100.00
2022-10-21T16:18:21.053Z,100.00
2022-10-21T16:20:51.062Z,100.00
2022-10-21T16:23:21.114Z,100.00
2022-10-21T16:25:51.235Z,100.00
2022-10-21T16:28:23.951Z,100.00
2022-10-21T16:30:54.104Z,100.00
2022-10-21T16:33:24.391Z,100.00
2022-10-21T16:35:54.541Z,100.00
2022-10-21T16:38:24.636Z,100.00
2022-10-21T16:40:54.829Z,100.00
2022-10-21T16:43:27.518Z,100.00
2022-10-21T16:45:57.632Z,100.00
2022-10-21T16:48:27.904Z,100.00
2022-10-21T16:50:58.110Z,100.00
2022-10-21T16:53:29.195Z,100.00
2022-10-21T16:55:59.335Z,100.00
2022-10-21T16:58:35.036Z,100.00
2022-10-21T17:01:06.654Z,100.00
2022-10-21T17:03:37.324Z,100.00
2022-10-21T17:06:07.565Z,100.00
2022-10-21T17:08:37.666Z,100.00
2022-10-21T17:11:08.117Z,100.00
2022-10-21T17:13:40.881Z,100.00
2022-10-21T17:16:12.429Z,100.00
2022-10-21T17:18:43.168Z,100.00
2022-10-21T17:21:23.441Z,100.00
2022-10-21T17:23:55.220Z,100.00
2022-10-21T17:26:26.073Z,100.00
2022-10-21T17:28:58.946Z,100.00
2022-10-21T17:31:32.481Z,100.00
2022-10-21T17:34:07.476Z,100.00
2022-10-21T17:36:38.980Z,100.00
2022-10-21T17:39:09.078Z,100.00
2022-10-21T17:41:39.182Z,100.00
2022-10-21T17:44:14.114Z,100.00
2022-10-21T17:46:46.105Z,100.00
2022-10-21T17:49:16.686Z,100.00
2022-10-21T17:51:46.863Z,100.00
2022-10-21T17:54:16.856Z,100.00
2022-10-21T17:56:47.043Z,100.00
2022-10-21T17:59:19.993Z,100.00
2022-10-21T18:01:50.190Z,100.00
2022-10-21T18:04:20.305Z,100.00
2022-10-21T18:06:50.477Z,100.00
2022-10-21T18:09:20.712Z,100.00
2022-10-21T18:11:50.981Z,100.00
2022-10-21T18:14:23.852Z,100.00
2022-10-21T18:16:54.122Z,100.00
2022-10-21T18:19:24.254Z,100.00
2022-10-21T18:21:54.304Z,100.00
2022-10-21T18:24:24.684Z,100.00
2022-10-21T18:26:54.672Z,100.00
2022-10-21T18:29:27.410Z,100.00
2022-10-21T18:31:57.573Z,100.00
2022-10-21T18:34:27.898Z,100.00
2022-10-21T18:36:59.678Z,100.00
2022-10-21T18:39:30.268Z,100.00
2022-10-21T18:42:00.420Z,100.00
2022-10-21T18:44:33.141Z,100.00
2022-10-21T18:47:03.325Z,100.00
2022-10-21T18:49:33.521Z,100.00
2022-10-21T18:52:03.785Z,100.00
2022-10-21T18:54:33.889Z,100.00
2022-10-21T18:57:06.652Z,100.00
2022-10-21T18:59:39.721Z,100.00
2022-10-21T19:02:11.703Z,100.00
2022-10-21T19:04:44.186Z,100.00
2022-10-21T19:07:14.252Z,100.00
2022-10-21T19:09:44.337Z,100.00
2022-10-21T19:12:17.372Z,100.00
2022-10-21T19:14:52.502Z,100.00
2022-10-21T19:17:22.638Z,100.00
2022-10-21T19:19:53.473Z,100.00
2022-10-21T19:22:23.660Z,100.00
2022-10-21T19:24:53.804Z,100.00
2022-10-21T19:27:24.575Z,100.00
2022-10-21T19:29:57.295Z,100.00
2022-10-21T19:32:27.467Z,100.00
2022-10-21T19:34:57.569Z,100.00
2022-10-21T19:37:27.625Z,100.00
2022-10-21T19:39:57.789Z,100.00
2022-10-21T19:42:27.957Z,100.00
2022-10-21T19:45:00.666Z,100.00
2022-10-21T19:47:31.354Z,100.00
2022-10-21T19:50:02.001Z,100.00
2022-10-21T19:52:32.287Z,100.00
2022-10-21T19:55:02.474Z,100.00
2022-10-21T19:57:32.724Z,100.00
2022-10-21T20:00:07.295Z,100.00
2022-10-21T20:02:42.095Z,100.00
2022-10-21T20:05:12.859Z,100.00
2022-10-21T20:07:43.208Z,100.00
2022-10-21T20:10:14.617Z,100.00
2022-10-21T20:12:45.009Z,100.00
2022-10-21T20:15:17.986Z,100.00
2022-10-21T20:17:48.218Z,100.00
2022-10-21T20:20:18.616Z,100.00
2022-10-21T20:22:48.732Z,100.00
2022-10-21T20:25:21.833Z,100.00
2022-10-21T20:27:52.051Z,100.00
2022-10-21T20:30:24.715Z,100.00
2022-10-21T20:32:54.808Z,100.00
2022-10-21T20:35:25.010Z,100.00
2022-10-21T20:37:55.280Z,100.00
2022-10-21T20:40:27.251Z,100.00
2022-10-21T20:42:57.320Z,100.00
2022-10-21T20:45:30.110Z,100.00
2022-10-21T20:48:00.456Z,100.00
2022-10-21T20:50:31.082Z,100.00
2022-10-21T20:53:01.130Z,100.00
2022-10-21T20:55:31.224Z,100.00
2022-10-21T20:58:01.294Z,100.00
2022-10-21T21:00:33.949Z,100.00
2022-10-21T21:03:03.984Z,100.00
2022-10-21T21:05:36.582Z,100.00
2022-10-21T21:08:09.501Z,100.00
2022-10-21T21:10:39.713Z,100.00
2022-10-21T21:13:09.961Z,100.00
2022-10-21T21:15:42.735Z,100.00
2022-10-21T21:18:14.195Z,100.00
2022-10-21T21:20:44.389Z,100.00
2022-10-21T21:23:14.467Z,100.00
2022-10-21T21:25:44.621Z,100.00
2022-10-21T21:28:14.842Z,100.00
2022-10-21T21:30:54.750Z,100.00
2022-10-21T21:33:24.909Z,100.00
2022-10-21T21:35:55.407Z,100.00
2022-10-21T21:38:25.652Z,100.00
2022-10-21T21:40:55.904Z,100.00
2022-10-21T21:43:26.162Z,100.00
2022-10-21T21:45:59.566Z,100.00
2022-10-21T21:48:30.246Z,100.00
2022-10-21T21:51:04.426Z,100.00
2022-10-21T21:53:34.709Z,100.00
2022-10-21T21:56:05.565Z,100.00
2022-10-21T21:58:35.426Z,100.00
2022-10-21T22:01:14.793Z,100.00
2022-10-21T22:03:47.090Z,100.00
2022-10-21T22:06:18.195Z,100.00
2022-10-21T22:08:49.160Z,100.00
2022-10-21T22:11:22.089Z,100.00
2022-10-21T22:13:53.227Z,100.00
2022-10-21T22:16:30.373Z,100.00
2022-10-21T22:19:02.921Z,100.00
2022-10-21T22:21:34.760Z,100.00
2022-10-21T22:24:04.837Z,100.00
2022-10-21T22:26:35.060Z,100.00
2022-10-21T22:29:05.180Z,100.00
2022-10-21T22:31:37.879Z,100.00
2022-10-21T22:34:11.048Z,100.00
2022-10-21T22:36:42.309Z,100.00
2022-10-21T22:39:12.328Z,100.00
2022-10-21T22:41:42.412Z,100.00
2022-10-21T22:44:16.640Z,100.00
2022-10-21T22:46:49.338Z,100.00
2022-10-21T22:49:19.810Z,100.00
2022-10-21T22:54:46.414Z,100.00
2022-10-21T22:57:10.482Z,100.00
2022-10-21T22:59:40.505Z,100.00
2022-10-21T23:02:13.342Z,100.00
2022-10-21T23:04:43.443Z,100.00
2022-10-21T23:07:13.490Z,100.00
2022-10-21T23:09:43.581Z,100.00
2022-10-21T23:12:13.646Z,100.00
2022-10-21T23:14:43.705Z,100.00
2022-10-21T23:17:16.492Z,100.00
2022-10-21T23:19:46.925Z,100.00
2022-10-21T23:22:17.283Z,100.00
2022-10-21T23:24:47.615Z,100.00
2022-10-21T23:27:17.748Z,100.00
2022-10-21T23:29:47.867Z,100.00
2022-10-21T23:32:20.632Z,100.00
2022-10-21T23:34:50.842Z,100.00
2022-10-21T23:40:13.297Z,100.00
2022-10-21T23:42:43.665Z,100.00
2022-10-21T23:45:14.489Z,100.00
2022-10-21T23:47:47.048Z,100.00
2022-10-21T23:50:17.462Z,100.00
2022-10-21T23:52:47.812Z,100.00
2022-10-21T23:55:18.210Z,100.00
2022-10-21T23:57:48.494Z,100.00
